createdAt,value
2022-09-03T00:00:11.734Z,100890.19
2022-09-03T00:02:49.662Z,100894.97
2022-09-03T00:05:49.927Z,100885.59
2022-09-03T00:08:41.003Z,100886.56
2022-09-03T00:11:18.775Z,100890.34
2022-09-03T00:13:51.739Z,100888.91
2022-09-03T00:16:22.191Z,100886.16
2022-09-03T00:18:58.934Z,100879.25
2022-09-03T00:21:45.866Z,100881.97
2022-09-03T00:24:17.120Z,100880.63
2022-09-03T00:26:52.013Z,100879.09
2022-09-03T00:29:23.272Z,100885.63
2022-09-03T00:32:04.251Z,100881.63
2022-09-03T00:34:41.608Z,100880.16
2022-09-03T00:37:14.407Z,100875.97
2022-09-03T00:39:42.902Z,100887.78
2022-09-03T00:42:09.742Z,100887.06
2022-09-03T00:44:48.544Z,100890.13
2022-09-03T00:47:28.299Z,100888.44
2022-09-03T00:50:00.335Z,100892.94
2022-09-03T00:52:55.057Z,100885.06
2022-09-03T00:55:27.681Z,100887.59
2022-09-03T00:58:11.490Z,100891.06
2022-09-03T01:00:43.660Z,100895.13
2022-09-03T01:03:16.755Z,100890.94
2022-09-03T01:06:02.115Z,100890.31
2022-09-03T01:08:39.468Z,100894.09
2022-09-03T01:11:19.206Z,100889.91
2022-09-03T01:14:03.323Z,100894.34
2022-09-03T01:16:53.844Z,100885.50
2022-09-03T01:19:35.777Z,100883.41
2022-09-03T01:22:44.926Z,100892.69
2022-09-03T01:25:11.532Z,100891.00
2022-09-03T01:27:47.262Z,100893.94
2022-09-03T01:30:18.713Z,100891.44
2022-09-03T01:32:53.130Z,100889.94
2022-09-03T01:35:47.712Z,100888.38
2022-09-03T01:38:14.326Z,100888.47
2022-09-03T01:40:48.016Z,100885.53
2022-09-03T01:43:22.671Z,100891.97
2022-09-03T01:46:01.664Z,100885.34
2022-09-03T01:48:44.868Z,100887.03
2022-09-03T01:51:24.116Z,100884.31
2022-09-03T01:53:52.275Z,100886.41
2022-09-03T01:56:50.039Z,100889.22
2022-09-03T01:59:31.396Z,100885.16
2022-09-03T02:02:21.489Z,100873.16
2022-09-03T02:05:08.915Z,100878.41
2022-09-03T02:07:46.066Z,100884.63
2022-09-03T02:10:21.258Z,100882.22
2022-09-03T02:12:53.604Z,100879.78
2022-09-03T02:15:23.096Z,100880.19
2022-09-03T02:17:55.716Z,100881.38
2022-09-03T02:20:26.164Z,100881.13
2022-09-03T02:22:54.408Z,100880.94
2022-09-03T02:25:23.727Z,100879.91
2022-09-03T02:27:51.174Z,100880.94
2022-09-03T02:30:18.725Z,100879.47
2022-09-03T02:32:47.525Z,100879.25
2022-09-03T02:35:14.215Z,100887.34
2022-09-03T02:37:40.928Z,100884.94
2022-09-03T02:40:10.429Z,100884.47
2022-09-03T02:42:37.147Z,100879.53
2022-09-03T02:45:14.256Z,100885.28
2022-09-03T02:47:45.062Z,100883.91
2022-09-03T02:50:11.787Z,100879.38
2022-09-03T02:52:38.691Z,100876.97
2022-09-03T02:55:06.015Z,100885.56
2022-09-03T02:57:32.619Z,100879.59
2022-09-03T02:59:59.254Z,100872.34
2022-09-03T03:02:26.126Z,100871.72
2022-09-03T03:04:53.343Z,100878.09
2022-09-03T03:07:20.037Z,100872.25
2022-09-03T03:09:46.613Z,100875.06
2022-09-03T03:12:13.497Z,100873.28
2022-09-03T03:14:40.140Z,100870.84
2022-09-03T03:17:06.805Z,100874.09
2022-09-03T03:19:33.852Z,100877.84
2022-09-03T03:22:00.521Z,100879.72
2022-09-03T03:24:27.118Z,100876.16
2022-09-03T03:26:58.332Z,100872.81
2022-09-03T03:29:25.807Z,100874.59
2022-09-03T03:31:52.573Z,100873.75
2022-09-03T03:34:19.228Z,100870.09
2022-09-03T03:36:45.888Z,100873.94
2022-09-03T03:39:13.040Z,100873.94
2022-09-03T03:41:39.643Z,100869.34
2022-09-03T03:44:08.984Z,100870.28
2022-09-03T03:46:41.171Z,100865.13
2022-09-03T03:49:09.004Z,100868.06
2022-09-03T03:51:38.089Z,100865.00
2022-09-03T03:54:05.873Z,100868.75
2022-09-03T03:56:33.812Z,100862.94
2022-09-03T03:59:00.850Z,100869.41
2022-09-03T04:01:29.123Z,100859.88
2022-09-03T04:03:56.859Z,100861.00
2022-09-03T04:06:23.693Z,100851.94
2022-09-03T04:08:50.670Z,100854.00
2022-09-03T04:11:20.007Z,100854.84
2022-09-03T04:13:50.599Z,100857.75
2022-09-03T04:16:23.232Z,100848.44
2022-09-03T04:18:51.039Z,100861.91
2022-09-03T04:21:20.539Z,100861.06
2022-09-03T04:23:48.965Z,100859.19
2022-09-03T04:26:24.379Z,100855.00
2022-09-03T04:28:51.388Z,100848.09
2022-09-03T04:31:19.866Z,100843.13
2022-09-03T04:33:47.132Z,100846.81
2022-09-03T04:36:17.078Z,100855.72
2022-09-03T04:38:46.035Z,100845.25
2022-09-03T04:41:15.078Z,100853.22
2022-09-03T04:43:43.548Z,100855.84
2022-09-03T04:46:17.592Z,100853.09
2022-09-03T04:48:50.310Z,100858.56
2022-09-03T04:51:22.624Z,100859.50
2022-09-03T04:53:54.799Z,100861.44
2022-09-03T04:56:24.545Z,100860.63
2022-09-03T04:58:56.136Z,100865.19
2022-09-03T05:01:24.552Z,100863.22
2022-09-03T05:03:52.419Z,100866.91
2022-09-03T05:06:19.732Z,100872.03
2022-09-03T05:08:50.646Z,100872.59
2022-09-03T05:11:18.021Z,100862.84
2022-09-03T05:13:49.067Z,100869.03
2022-09-03T05:16:18.453Z,100872.59
2022-09-03T05:18:46.068Z,100865.56
2022-09-03T05:21:15.176Z,100862.00
2022-09-03T05:23:45.086Z,100857.41
2022-09-03T05:26:14.151Z,100864.31
2022-09-03T05:28:42.079Z,100858.06
2022-09-03T05:31:11.949Z,100863.59
2022-09-03T05:33:47.331Z,100862.81
2022-09-03T05:36:19.841Z,100864.84
2022-09-03T05:38:47.824Z,100867.28
2022-09-03T05:41:16.662Z,100854.91
2022-09-03T05:43:47.386Z,100863.84
2022-09-03T05:46:18.757Z,100858.97
2022-09-03T05:48:46.103Z,100863.38
2022-09-03T05:51:16.408Z,100864.06
2022-09-03T05:53:45.445Z,100860.53
2022-09-03T05:56:14.727Z,100855.69
2022-09-03T05:58:47.098Z,100859.25
2022-09-03T06:01:16.707Z,100865.78
2022-09-03T06:03:45.170Z,100864.38
2022-09-03T06:06:14.110Z,100867.59
2022-09-03T06:08:42.421Z,100865.41
2022-09-03T06:11:09.515Z,100868.97
2022-09-03T06:13:36.587Z,100876.22
2022-09-03T06:16:05.933Z,100871.03
2022-09-03T06:18:32.784Z,100868.97
2022-09-03T06:21:05.166Z,100870.88
2022-09-03T06:23:33.105Z,100872.03
2022-09-03T06:26:13.819Z,100870.66
2022-09-03T06:28:43.701Z,100868.47
2022-09-03T06:31:15.283Z,100869.81
2022-09-03T06:33:43.095Z,100870.97
2022-09-03T06:36:13.484Z,100868.34
2022-09-03T06:38:41.020Z,100868.88
2022-09-03T06:41:13.242Z,100866.66
2022-09-03T06:43:42.119Z,100865.69
2022-09-03T06:46:11.654Z,100862.19
2022-09-03T06:48:40.837Z,100868.69
2022-09-03T06:51:13.245Z,100876.66
2022-09-03T06:53:43.089Z,100870.75
2022-09-03T06:56:12.541Z,100871.28
2022-09-03T06:58:44.929Z,100870.41
2022-09-03T07:01:16.794Z,100869.41
2022-09-03T07:03:45.058Z,100863.78
2022-09-03T07:06:13.354Z,100860.50
2022-09-03T07:08:40.452Z,100866.97
2022-09-03T07:11:11.874Z,100867.97
2022-09-03T07:13:41.253Z,100866.22
2022-09-03T07:16:19.326Z,100870.53
2022-09-03T07:18:46.703Z,100866.44
2022-09-03T07:21:16.936Z,100872.53
2022-09-03T07:23:44.082Z,100867.88
2022-09-03T07:26:14.639Z,100869.81
2022-09-03T07:28:42.853Z,100866.94
2022-09-03T07:31:22.733Z,100867.91
2022-09-03T07:33:49.349Z,100864.56
2022-09-03T07:36:17.666Z,100869.09
2022-09-03T07:38:45.713Z,100872.44
2022-09-03T07:41:23.904Z,100873.41
2022-09-03T07:43:54.918Z,100875.34
2022-09-03T07:46:24.254Z,100870.06
2022-09-03T07:48:56.554Z,100867.63
2022-09-03T07:51:28.446Z,100867.84
2022-09-03T07:53:57.818Z,100867.09
2022-09-03T07:56:25.985Z,100863.72
2022-09-03T07:58:53.368Z,100860.19
2022-09-03T08:01:23.815Z,100865.31
2022-09-03T08:03:51.860Z,100859.84
2022-09-03T08:06:20.657Z,100852.22
2022-09-03T08:08:47.754Z,100865.09
2022-09-03T08:11:14.487Z,100863.50
2022-09-03T08:13:42.999Z,100862.25
2022-09-03T08:16:09.870Z,100865.91
2022-09-03T08:18:38.547Z,100862.88
2022-09-03T08:21:16.990Z,100864.16
2022-09-03T08:23:45.727Z,100871.69
2022-09-03T08:26:13.801Z,100867.16
2022-09-03T08:28:43.271Z,100862.78
2022-09-03T08:31:21.830Z,100864.91
2022-09-03T08:33:53.541Z,100865.06
2022-09-03T08:36:22.868Z,100866.88
2022-09-03T08:38:55.194Z,100869.69
2022-09-03T08:41:50.374Z,100872.47
2022-09-03T08:44:24.275Z,100872.78
2022-09-03T08:47:06.214Z,100867.91
2022-09-03T08:49:48.511Z,100868.91
2022-09-03T08:52:27.138Z,100865.00
2022-09-03T08:55:03.183Z,100862.78
2022-09-03T08:57:37.920Z,100859.56
2022-09-03T09:00:05.096Z,100864.72
2022-09-03T09:02:47.352Z,100867.81
2022-09-03T09:05:24.844Z,100876.16
2022-09-03T09:08:13.106Z,100876.78
2022-09-03T09:10:48.300Z,100868.25
2022-09-03T09:13:16.794Z,100883.72
2022-09-03T09:15:54.742Z,100876.78
2022-09-03T09:18:28.599Z,100869.22
2022-09-03T09:21:00.528Z,100877.31
2022-09-03T09:23:31.963Z,100867.97
2022-09-03T09:26:05.589Z,100870.06
2022-09-03T09:28:39.362Z,100873.41
2022-09-03T09:31:15.412Z,100869.53
2022-09-03T09:33:42.635Z,100872.16
2022-09-03T09:36:15.472Z,100868.38
2022-09-03T09:38:43.633Z,100866.44
2022-09-03T09:41:10.840Z,100861.97
2022-09-03T09:43:39.184Z,100865.34
2022-09-03T09:46:16.717Z,100864.66
2022-09-03T09:48:58.553Z,100869.94
2022-09-03T09:51:30.985Z,100875.06
2022-09-03T09:54:14.454Z,100878.69
2022-09-03T09:56:42.995Z,100869.78
2022-09-03T09:59:11.491Z,100879.41
2022-09-03T10:01:40.358Z,100888.47
2022-09-03T10:04:13.183Z,100876.75
2022-09-03T10:06:57.202Z,100863.50
2022-09-03T10:09:30.884Z,100870.88
2022-09-03T10:11:58.302Z,100879.13
2022-09-03T10:14:35.411Z,100872.28
2022-09-03T10:17:36.774Z,100875.75
2022-09-03T10:20:28.284Z,100873.09
2022-09-03T10:23:14.939Z,100875.88
2022-09-03T10:25:57.218Z,100881.16
2022-09-03T10:28:29.830Z,100872.84
2022-09-03T10:31:19.332Z,100879.91
2022-09-03T10:34:04.994Z,100872.84
2022-09-03T10:36:37.480Z,100867.81
2022-09-03T10:39:06.359Z,100873.50
2022-09-03T10:42:20.283Z,100870.00
2022-09-03T10:45:00.808Z,100863.44
2022-09-03T10:48:04.880Z,100868.19
2022-09-03T10:50:38.464Z,100864.44
2022-09-03T10:53:24.927Z,100860.66
2022-09-03T10:55:57.523Z,100868.31
2022-09-03T10:58:27.513Z,100876.97
2022-09-03T11:01:15.336Z,100873.22
2022-09-03T11:04:20.270Z,100875.97
2022-09-03T11:06:58.316Z,100874.72
2022-09-03T11:09:31.685Z,100881.53
2022-09-03T11:12:05.437Z,100879.72
2022-09-03T11:14:38.662Z,100880.69
2022-09-03T11:17:16.738Z,100878.03
2022-09-03T11:19:51.382Z,100878.72
2022-09-03T11:22:20.933Z,100881.94
2022-09-03T11:24:59.839Z,100878.16
2022-09-03T11:27:26.325Z,100881.38
2022-09-03T11:30:02.304Z,100875.41
2022-09-03T11:32:34.871Z,100866.63
2022-09-03T11:35:01.703Z,100867.69
2022-09-03T11:37:30.661Z,100861.00
2022-09-03T11:40:13.588Z,100869.78
2022-09-03T11:42:42.882Z,100860.66
2022-09-03T11:45:14.928Z,100859.22
2022-09-03T11:47:43.795Z,100857.28
2022-09-03T11:50:25.665Z,100857.81
2022-09-03T11:52:56.781Z,100851.66
2022-09-03T11:55:40.870Z,100855.31
2022-09-03T11:58:27.174Z,100855.06
2022-09-03T12:00:55.543Z,100848.34
2022-09-03T12:03:28.669Z,100852.34
2022-09-03T12:06:20.679Z,100856.38
2022-09-03T12:08:53.046Z,100856.94
2022-09-03T12:11:37.922Z,100863.75
2022-09-03T12:14:50.381Z,100863.75
2022-09-03T12:17:28.804Z,100853.72
2022-09-03T12:19:58.249Z,100854.81
2022-09-03T12:22:31.292Z,100863.59
2022-09-03T12:25:09.243Z,100856.94
2022-09-03T12:27:40.300Z,100866.09
2022-09-03T12:30:16.361Z,100853.53
2022-09-03T12:32:43.607Z,100852.75
2022-09-03T12:38:24.083Z,100847.94
2022-09-03T12:43:38.145Z,100850.00
2022-09-03T12:46:10.741Z,100849.44
2022-09-03T12:48:40.440Z,100838.88
2022-09-03T12:53:54.241Z,100835.25
2022-09-03T12:56:22.442Z,100838.22
2022-09-03T12:59:04.364Z,100829.38
2022-09-03T13:01:45.955Z,100843.66
2022-09-03T13:04:18.046Z,100844.72
2022-09-03T13:06:53.883Z,100842.81
2022-09-03T13:09:24.977Z,100850.94
2022-09-03T13:11:52.623Z,100841.31
2022-09-03T13:14:20.125Z,100844.13
2022-09-03T13:16:46.810Z,100836.44
2022-09-03T13:19:22.604Z,100835.09
2022-09-03T13:22:04.758Z,100832.03
2022-09-03T13:24:49.877Z,100836.63
2022-09-03T13:27:45.083Z,100838.34
2022-09-03T13:30:21.399Z,100831.59
2022-09-03T13:33:03.223Z,100821.69
2022-09-03T13:35:42.696Z,100826.88
2022-09-03T13:38:36.465Z,100825.84
2022-09-03T13:41:15.126Z,100827.22
2022-09-03T13:43:54.047Z,100821.97
2022-09-03T13:46:32.145Z,100821.88
2022-09-03T13:49:46.958Z,100824.06
2022-09-03T13:52:22.823Z,100815.75
2022-09-03T13:55:03.071Z,100815.50
2022-09-03T13:57:54.242Z,100811.38
2022-09-03T14:00:29.167Z,100811.06
2022-09-03T14:03:09.223Z,100816.88
2022-09-03T14:06:14.521Z,100816.22
2022-09-03T14:09:23.563Z,100816.47
2022-09-03T14:12:01.400Z,100823.59
2022-09-03T14:14:43.085Z,100818.59
2022-09-03T14:17:26.392Z,100820.34
2022-09-03T14:20:13.119Z,100814.09
2022-09-03T14:22:52.144Z,100818.69
2022-09-03T14:25:22.620Z,100821.03
2022-09-03T14:27:49.750Z,100816.84
2022-09-03T14:30:38.488Z,100820.28
2022-09-03T14:33:33.370Z,100824.19
2022-09-03T14:36:37.412Z,100811.56
2022-09-03T14:39:32.535Z,100816.19
2022-09-03T14:42:16.938Z,100821.44
2022-09-03T14:45:05.095Z,100813.78
2022-09-03T14:48:22.217Z,100819.91
2022-09-03T14:50:58.244Z,100816.56
2022-09-03T14:53:49.764Z,100817.47
2022-09-03T14:56:27.008Z,100822.47
2022-09-03T14:59:24.619Z,100814.63
2022-09-03T15:02:21.605Z,100810.66
2022-09-03T15:05:00.224Z,100810.44
2022-09-03T15:07:41.216Z,100822.50
2022-09-03T15:10:37.823Z,100811.56
2022-09-03T15:13:15.933Z,100817.56
2022-09-03T15:15:42.841Z,100805.66
2022-09-03T15:18:43.121Z,100802.13
2022-09-03T15:21:41.021Z,100804.69
2022-09-03T15:24:38.129Z,100804.97
2022-09-03T15:27:33.868Z,100807.91
2022-09-03T15:30:06.460Z,100807.53
2022-09-03T15:32:57.972Z,100800.72
2022-09-03T15:35:41.431Z,100807.31
2022-09-03T15:40:48.853Z,100806.16
2022-09-03T15:43:29.849Z,100800.31
2022-09-03T15:46:12.171Z,100801.63
2022-09-03T15:48:51.975Z,100804.44
2022-09-03T15:51:28.444Z,100808.44
2022-09-03T15:54:03.874Z,100812.09
2022-09-03T15:56:40.846Z,100804.28
2022-09-03T15:59:41.174Z,100803.44
2022-09-03T16:02:14.638Z,100803.75
2022-09-03T16:04:53.463Z,100808.41
2022-09-03T16:07:49.340Z,100807.19
2022-09-03T16:10:24.774Z,100804.09
2022-09-03T16:13:05.177Z,100813.34
2022-09-03T16:15:47.339Z,100815.34
2022-09-03T16:19:02.449Z,100817.16
2022-09-03T16:22:26.411Z,100820.66
2022-09-03T16:25:09.396Z,100811.69
2022-09-03T16:27:52.702Z,100819.94
2022-09-03T16:31:08.115Z,100813.66
2022-09-03T16:33:46.809Z,100813.66
2022-09-03T16:36:17.456Z,100810.19
2022-09-03T16:39:36.978Z,100807.53
2022-09-03T16:42:25.296Z,100813.97
2022-09-03T16:45:15.127Z,100814.97
2022-09-03T16:47:59.807Z,100809.81
2022-09-03T16:50:52.077Z,100820.44
2022-09-03T16:53:56.695Z,100812.63
2022-09-03T16:56:42.164Z,100822.94
2022-09-03T16:59:17.993Z,100819.81
2022-09-03T17:02:09.937Z,100828.97
2022-09-03T17:04:59.853Z,100823.59
2022-09-03T17:07:52.151Z,100824.38
2022-09-03T17:10:31.768Z,100827.25
2022-09-03T17:13:19.944Z,100832.50
2022-09-03T17:16:21.728Z,100835.31
2022-09-03T17:19:07.378Z,100840.88
2022-09-03T17:21:38.517Z,100845.41
2022-09-03T17:24:55.052Z,100847.31
2022-09-03T17:27:33.566Z,100847.28
2022-09-03T17:30:08.245Z,100846.78
2022-09-03T17:32:46.726Z,100866.59
2022-09-03T17:35:19.953Z,100851.06
2022-09-03T17:38:08.246Z,100853.38
2022-09-03T17:40:47.464Z,100855.13
2022-09-03T17:43:28.499Z,100855.97
2022-09-03T17:46:10.788Z,100848.50
2022-09-03T17:49:07.066Z,100855.75
2022-09-03T17:51:47.631Z,100869.44
2022-09-03T17:54:26.182Z,100871.66
2022-09-03T17:57:19.788Z,100870.56
2022-09-03T18:00:05.879Z,100876.72
2022-09-03T18:02:35.423Z,100879.50
2022-09-03T18:05:18.495Z,100881.50
2022-09-03T18:08:00.383Z,100883.72
2022-09-03T18:10:43.353Z,100891.38
2022-09-03T18:13:16.934Z,100897.06
2022-09-03T18:16:22.224Z,100897.66
2022-09-03T18:18:53.465Z,100900.72
2022-09-03T18:21:43.678Z,100902.34
2022-09-03T18:24:37.725Z,100905.97
2022-09-03T18:27:30.720Z,100920.72
2022-09-03T18:30:22.810Z,100933.38
2022-09-03T18:33:08.152Z,100937.69
2022-09-03T18:35:53.571Z,100934.06
2022-09-03T18:38:56.012Z,100944.38
2022-09-03T18:42:05.779Z,100951.88
2022-09-03T18:45:23.050Z,100951.88
2022-09-03T18:48:25.867Z,100961.78
2022-09-03T18:51:38.885Z,100963.69
2022-09-03T18:55:06.172Z,100965.34
2022-09-03T18:58:23.158Z,100965.78
2022-09-03T19:01:37.105Z,100964.06
2022-09-03T19:04:48.354Z,100975.31
2022-09-03T19:07:39.731Z,100981.72
2022-09-03T19:10:40.229Z,100974.59
2022-09-03T19:13:34.313Z,100976.25
2022-09-03T19:16:29.673Z,100986.66
2022-09-03T19:19:31.181Z,100987.03
2022-09-03T19:22:59.561Z,100986.72
2022-09-03T19:25:47.154Z,100993.47
2022-09-03T19:28:39.691Z,100999.72
2022-09-03T19:31:30.836Z,100999.41
2022-09-03T19:34:35.712Z,100998.81
2022-09-03T19:37:46.197Z,100998.25
2022-09-03T19:41:01.943Z,101000.06
2022-09-03T19:44:06.032Z,101014.25
2022-09-03T19:47:03.604Z,101012.94
2022-09-03T19:50:07.421Z,101016.09
2022-09-03T19:53:13.753Z,101020.06
2022-09-03T19:56:07.915Z,101020.34
2022-09-03T19:58:56.818Z,101022.78
2022-09-03T20:01:48.643Z,101031.22
2022-09-03T20:04:34.721Z,101033.16
2022-09-03T20:07:23.647Z,101030.75
2022-09-03T20:10:10.078Z,101034.63
2022-09-03T20:12:40.100Z,101036.78
2022-09-03T20:15:08.146Z,101038.72
2022-09-03T20:17:50.021Z,101051.19
2022-09-03T20:20:25.248Z,101050.59
2022-09-03T20:23:10.332Z,101054.56
2022-09-03T20:26:12.687Z,101050.47
2022-09-03T20:29:02.537Z,101054.31
2022-09-03T20:31:45.457Z,101050.13
2022-09-03T20:34:59.095Z,101056.50
2022-09-03T20:37:36.390Z,101056.63
2022-09-03T20:40:38.183Z,101066.81
2022-09-03T20:44:02.154Z,101061.06
2022-09-03T20:46:49.853Z,101068.28
2022-09-03T20:49:40.630Z,101068.28
2022-09-03T20:52:21.100Z,101069.34
2022-09-03T20:55:12.989Z,101066.09
2022-09-03T20:57:54.922Z,101072.81
2022-09-03T21:00:23.650Z,101074.75
2022-09-03T21:03:14.469Z,101076.66
2022-09-03T21:05:45.977Z,101074.97
2022-09-03T21:08:18.461Z,101076.19
2022-09-03T21:10:56.444Z,101077.38
2022-09-03T21:13:32.818Z,101077.38
2022-09-03T21:16:15.296Z,101076.88
2022-09-03T21:18:59.310Z,101081.44
2022-09-03T21:21:54.407Z,101075.34
2022-09-03T21:24:31.603Z,101081.44
2022-09-03T21:27:04.637Z,101086.22
2022-09-03T21:29:41.500Z,101087.19
2022-09-03T21:32:18.716Z,101089.00
2022-09-03T21:35:03.979Z,101087.19
2022-09-03T21:37:35.198Z,101087.66
2022-09-03T21:40:02.405Z,101084.31
2022-09-03T21:42:52.937Z,101083.72
2022-09-03T21:45:29.645Z,101086.44
2022-09-03T21:48:20.150Z,101088.50
2022-09-03T21:50:47.552Z,101091.25
2022-09-03T21:53:27.131Z,101099.38
2022-09-03T21:56:26.150Z,101104.75
2022-09-03T21:59:23.398Z,101103.28
2022-09-03T22:02:11.074Z,101110.47
2022-09-03T22:04:37.760Z,101107.13
2022-09-03T22:07:07.472Z,101116.84
2022-09-03T22:09:50.975Z,101110.72
2022-09-03T22:12:24.272Z,101121.34
2022-09-03T22:14:53.511Z,101116.56
2022-09-03T22:17:28.062Z,101115.75
2022-09-03T22:19:54.598Z,101123.66
2022-09-03T22:22:30.263Z,101115.81
2022-09-03T22:25:29.810Z,101113.44
2022-09-03T22:28:10.175Z,101116.41
2022-09-03T22:30:42.430Z,101113.88
2022-09-03T22:33:40.355Z,101111.38
2022-09-03T22:36:15.122Z,101114.97
2022-09-03T22:39:02.723Z,101115.16
2022-09-03T22:42:08.415Z,101116.66
2022-09-03T22:45:03.438Z,101121.63
2022-09-03T22:47:37.156Z,101127.59
2022-09-03T22:50:28.868Z,101130.13
2022-09-03T22:53:17.281Z,101137.09
2022-09-03T22:56:01.543Z,101131.94
2022-09-03T22:58:34.742Z,101137.72
2022-09-03T23:01:10.743Z,101135.63
2022-09-03T23:03:48.461Z,101138.78
2022-09-03T23:06:26.164Z,101141.19
2022-09-03T23:09:00.323Z,101138.56
2022-09-03T23:11:36.649Z,101144.53
2022-09-03T23:14:09.868Z,101139.81
2022-09-03T23:16:42.582Z,101139.44
2022-09-03T23:21:53.412Z,101142.59
2022-09-03T23:24:33.115Z,101141.16
2022-09-03T23:27:03.533Z,101140.50
2022-09-03T23:29:52.133Z,101148.31
2022-09-03T23:32:18.873Z,101146.59
2022-09-03T23:34:45.556Z,101146.59
2022-09-03T23:37:36.672Z,101153.69
2022-09-03T23:40:03.713Z,101151.19
2022-09-03T23:43:01.027Z,101148.56
2022-09-03T23:45:46.458Z,101152.09
2022-09-03T23:48:37.929Z,101151.38
2022-09-03T23:51:33.517Z,101155.69
2022-09-03T23:54:37.742Z,101157.91
2022-09-03T23:57:06.975Z,101153.38
